createdAt,value
2022-10-12T00:01:17.159Z,17.74
2022-10-12T00:03:45.008Z,17.73
2022-10-12T00:06:25.268Z,17.73
2022-10-12T00:08:55.920Z,17.70
2022-10-12T00:11:28.174Z,17.70
2022-10-12T00:13:57.637Z,17.63
2022-10-12T00:16:27.028Z,17.62
2022-10-12T00:18:56.774Z,17.57
2022-10-12T00:21:29.355Z,17.55
2022-10-12T00:24:02.153Z,17.53
2022-10-12T00:26:30.464Z,17.49
2022-10-12T00:29:01.494Z,17.48
2022-10-12T00:31:31.247Z,17.45
2022-10-12T00:34:04.257Z,17.49
2022-10-12T00:36:35.973Z,17.47
2022-10-12T00:39:09.226Z,17.45
2022-10-12T00:41:42.954Z,17.42
2022-10-12T00:44:35.860Z,17.40
2022-10-12T00:47:16.804Z,17.38
2022-10-12T00:49:55.314Z,17.36
2022-10-12T00:52:37.000Z,17.39
2022-10-12T00:55:06.230Z,17.19
2022-10-12T00:57:34.610Z,17.36
2022-10-12T01:00:08.683Z,17.42
2022-10-12T01:02:49.324Z,17.49
2022-10-12T01:05:18.729Z,17.32
2022-10-12T01:07:46.862Z,17.42
2022-10-12T01:10:15.820Z,17.47
2022-10-12T01:12:47.426Z,17.51
2022-10-12T01:15:15.135Z,17.34
2022-10-12T01:18:17.954Z,17.47
2022-10-12T01:21:30.114Z,17.52
2022-10-12T01:24:23.977Z,17.50
2022-10-12T01:27:03.803Z,17.50
2022-10-12T01:30:07.979Z,17.51
2022-10-12T01:33:25.436Z,17.40
2022-10-12T01:36:10.021Z,17.38
2022-10-12T01:38:41.894Z,17.38
2022-10-12T01:41:19.122Z,17.34
2022-10-12T01:43:47.653Z,17.28
2022-10-12T01:46:15.603Z,17.22
2022-10-12T01:48:54.500Z,17.24
2022-10-12T01:52:15.924Z,17.17
2022-10-12T01:55:08.402Z,17.14
2022-10-12T01:58:33.856Z,17.05
2022-10-12T02:01:27.030Z,17.07
2022-10-12T02:04:03.209Z,17.07
2022-10-12T02:06:45.450Z,17.06
2022-10-12T02:09:26.793Z,17.05
2022-10-12T02:12:02.402Z,17.02
2022-10-12T02:14:38.920Z,17.03
2022-10-12T02:17:12.436Z,17.01
2022-10-12T02:19:49.401Z,16.99
2022-10-12T02:22:18.414Z,16.87
2022-10-12T02:24:51.867Z,16.92
2022-10-12T02:27:21.692Z,16.86
2022-10-12T02:29:49.875Z,16.86
2022-10-12T02:32:25.070Z,16.80
2022-10-12T02:35:05.510Z,16.84
2022-10-12T02:37:46.759Z,16.71
2022-10-12T02:41:15.846Z,16.69
2022-10-12T02:43:55.270Z,16.66
2022-10-12T02:46:26.417Z,16.66
2022-10-12T02:48:58.971Z,16.62
2022-10-12T02:51:30.045Z,16.63
2022-10-12T02:53:59.700Z,16.63
2022-10-12T02:56:27.979Z,16.62
2022-10-12T02:58:57.173Z,16.61
2022-10-12T03:01:24.998Z,16.60
2022-10-12T03:03:55.211Z,16.61
2022-10-12T03:06:23.948Z,16.60
2022-10-12T03:08:51.934Z,16.62
2022-10-12T03:11:20.397Z,16.61
2022-10-12T03:13:48.791Z,16.67
2022-10-12T03:16:17.167Z,16.64
2022-10-12T03:18:44.990Z,16.67
2022-10-12T03:21:13.043Z,16.67
2022-10-12T03:23:40.992Z,16.67
2022-10-12T03:26:09.348Z,16.60
2022-10-12T03:28:37.645Z,16.63
2022-10-12T03:31:05.657Z,16.62
2022-10-12T03:33:33.436Z,16.58
2022-10-12T03:36:01.687Z,16.52
2022-10-12T03:38:30.747Z,16.51
2022-10-12T03:41:02.896Z,16.47
2022-10-12T03:43:36.101Z,16.45
2022-10-12T03:46:04.247Z,16.44
2022-10-12T03:48:32.571Z,16.43
2022-10-12T03:51:01.223Z,16.39
2022-10-12T03:53:29.279Z,16.37
2022-10-12T03:55:57.217Z,16.34
2022-10-12T03:58:25.623Z,16.39
2022-10-12T04:00:55.862Z,16.41
2022-10-12T04:03:24.776Z,16.43
2022-10-12T04:05:57.658Z,16.41
2022-10-12T04:08:26.852Z,16.43
2022-10-12T04:10:55.090Z,16.46
2022-10-12T04:13:27.875Z,16.46
2022-10-12T04:15:55.908Z,16.29
2022-10-12T04:18:24.985Z,16.38
2022-10-12T04:20:53.511Z,16.38
2022-10-12T04:23:21.855Z,16.39
2022-10-12T04:25:50.409Z,16.41
2022-10-12T04:28:19.920Z,16.39
2022-10-12T04:30:48.059Z,16.39
2022-10-12T04:33:15.890Z,16.39
2022-10-12T04:35:43.956Z,16.38
2022-10-12T04:38:13.507Z,16.36
2022-10-12T04:40:41.711Z,16.33
2022-10-12T04:43:09.565Z,16.32
2022-10-12T04:45:37.620Z,16.27
2022-10-12T04:48:05.406Z,16.27
2022-10-12T04:50:34.056Z,16.24
2022-10-12T04:53:02.188Z,16.23
2022-10-12T04:55:32.468Z,16.25
2022-10-12T04:58:01.140Z,16.24
2022-10-12T05:00:29.415Z,16.20
2022-10-12T05:02:59.597Z,16.20
2022-10-12T05:05:27.499Z,16.16
2022-10-12T05:07:55.441Z,16.16
2022-10-12T05:10:23.934Z,16.15
2022-10-12T05:12:51.643Z,16.15
2022-10-12T05:15:20.756Z,16.17
2022-10-12T05:17:49.003Z,16.08
2022-10-12T05:20:17.187Z,16.16
2022-10-12T05:22:45.090Z,16.12
2022-10-12T05:25:14.283Z,16.08
2022-10-12T05:27:42.932Z,16.09
2022-10-12T05:30:13.001Z,16.06
2022-10-12T05:32:41.110Z,16.03
2022-10-12T05:35:11.436Z,16.03
2022-10-12T05:37:39.595Z,15.98
2022-10-12T05:40:09.353Z,16.03
2022-10-12T05:42:37.359Z,15.97
2022-10-12T05:45:06.533Z,16.00
2022-10-12T05:47:34.690Z,16.02
2022-10-12T05:50:03.227Z,16.02
2022-10-12T05:52:30.956Z,16.04
2022-10-12T05:54:59.073Z,16.04
2022-10-12T05:57:28.046Z,16.06
2022-10-12T05:59:57.318Z,16.11
2022-10-12T06:02:25.959Z,16.05
2022-10-12T06:04:54.150Z,16.09
2022-10-12T06:07:22.629Z,16.13
2022-10-12T06:09:50.476Z,16.12
2022-10-12T06:12:18.371Z,16.18
2022-10-12T06:14:46.544Z,16.21
2022-10-12T06:17:14.381Z,16.23
2022-10-12T06:19:42.205Z,16.19
2022-10-12T06:22:10.040Z,16.29
2022-10-12T06:24:38.447Z,16.29
2022-10-12T06:27:06.488Z,16.32
2022-10-12T06:29:35.888Z,16.40
2022-10-12T06:32:04.612Z,16.44
2022-10-12T06:34:32.503Z,16.45
2022-10-12T06:37:02.043Z,16.52
2022-10-12T06:39:30.219Z,16.53
2022-10-12T06:41:58.084Z,16.56
2022-10-12T06:44:31.010Z,16.57
2022-10-12T06:47:02.776Z,16.61
2022-10-12T06:49:30.773Z,16.64
2022-10-12T06:51:59.531Z,16.67
2022-10-12T06:54:28.134Z,16.70
2022-10-12T06:56:58.743Z,16.68
2022-10-12T06:59:26.984Z,16.72
2022-10-12T07:01:57.275Z,16.76
2022-10-12T07:04:25.566Z,16.77
2022-10-12T07:06:53.354Z,16.77
2022-10-12T07:09:21.264Z,16.81
2022-10-12T07:11:49.268Z,16.89
2022-10-12T07:14:17.387Z,16.87
2022-10-12T07:16:46.076Z,16.99
2022-10-12T07:19:16.084Z,17.02
2022-10-12T07:21:45.232Z,17.09
2022-10-12T07:24:14.182Z,17.15
2022-10-12T07:26:42.085Z,17.18
2022-10-12T07:29:10.386Z,17.15
2022-10-12T07:31:38.252Z,17.27
2022-10-12T07:34:06.997Z,17.31
2022-10-12T07:36:59.445Z,17.39
2022-10-12T07:39:48.043Z,17.45
2022-10-12T07:42:19.237Z,17.47
2022-10-12T07:44:48.096Z,17.52
2022-10-12T07:47:17.720Z,17.55
2022-10-12T07:49:46.423Z,17.61
2022-10-12T07:52:14.875Z,17.60
2022-10-12T07:54:43.345Z,17.67
2022-10-12T07:57:11.677Z,17.67
2022-10-12T07:59:41.239Z,17.73
2022-10-12T08:02:12.712Z,17.75
2022-10-12T08:04:40.885Z,17.63
2022-10-12T08:07:08.702Z,17.76
2022-10-12T08:09:36.573Z,17.85
2022-10-12T08:12:05.108Z,18.00
2022-10-12T08:14:33.263Z,18.08
2022-10-12T08:17:01.415Z,18.11
2022-10-12T08:19:35.089Z,18.16
2022-10-12T08:22:03.477Z,18.18
2022-10-12T08:24:34.393Z,18.24
2022-10-12T08:27:03.396Z,18.29
2022-10-12T08:29:32.726Z,18.27
2022-10-12T08:32:02.849Z,18.34
2022-10-12T08:34:31.089Z,18.42
2022-10-12T08:37:02.190Z,18.51
2022-10-12T08:39:30.675Z,18.56
2022-10-12T08:42:34.036Z,18.64
2022-10-12T08:45:39.076Z,18.68
2022-10-12T08:48:15.279Z,18.68
2022-10-12T08:50:53.828Z,18.82
2022-10-12T08:53:26.859Z,18.91
2022-10-12T08:55:56.951Z,19.00
2022-10-12T08:58:34.026Z,19.07
2022-10-12T09:01:16.626Z,19.13
2022-10-12T09:04:04.443Z,19.18
2022-10-12T09:06:55.626Z,19.21
2022-10-12T09:09:49.962Z,19.29
2022-10-12T09:12:41.862Z,19.38
2022-10-12T09:15:44.149Z,19.42
2022-10-12T09:18:40.835Z,19.50
2022-10-12T09:21:19.380Z,19.55
2022-10-12T09:23:49.381Z,19.58
2022-10-12T09:26:26.173Z,19.56
2022-10-12T09:28:58.229Z,19.59
2022-10-12T09:32:12.296Z,19.65
2022-10-12T09:34:41.394Z,19.63
2022-10-12T09:37:19.174Z,19.73
2022-10-12T09:39:48.068Z,19.74
2022-10-12T09:42:16.503Z,19.76
2022-10-12T09:44:52.743Z,19.85
2022-10-12T09:47:29.672Z,19.87
2022-10-12T09:50:04.728Z,19.85
2022-10-12T09:52:44.010Z,19.87
2022-10-12T09:58:02.724Z,19.95
2022-10-12T10:00:34.410Z,19.95
2022-10-12T10:03:02.938Z,20.05
2022-10-12T10:05:38.037Z,20.15
2022-10-12T10:08:15.144Z,20.19
2022-10-12T10:10:59.204Z,20.27
2022-10-12T10:13:31.720Z,20.28
2022-10-12T10:16:10.855Z,20.32
2022-10-12T10:18:49.010Z,20.32
2022-10-12T10:21:29.201Z,20.45
2022-10-12T10:24:07.338Z,20.49
2022-10-12T10:27:04.191Z,20.56
2022-10-12T10:29:42.349Z,20.63
2022-10-12T10:32:26.368Z,20.65
2022-10-12T10:35:13.865Z,20.73
2022-10-12T10:37:56.469Z,20.70
2022-10-12T10:40:32.519Z,20.66
2022-10-12T10:43:16.021Z,20.66
2022-10-12T10:45:56.911Z,20.71
2022-10-12T10:48:59.186Z,20.76
2022-10-12T10:51:51.031Z,20.78
2022-10-12T10:54:38.086Z,20.77
2022-10-12T10:57:23.776Z,20.76
2022-10-12T11:00:37.894Z,20.78
2022-10-12T11:02:58.614Z,20.77
2022-10-12T11:05:33.565Z,20.80
2022-10-12T11:08:27.143Z,20.81
2022-10-12T11:11:17.608Z,20.81
2022-10-12T11:14:19.641Z,20.78
2022-10-12T11:17:24.351Z,20.78
2022-10-12T11:20:10.517Z,20.78
2022-10-12T11:22:53.784Z,20.78
2022-10-12T11:25:54.497Z,20.77
2022-10-12T11:28:27.964Z,20.75
2022-10-12T11:30:56.748Z,20.78
2022-10-12T11:33:42.339Z,20.82
2022-10-12T11:36:24.647Z,20.83
2022-10-12T11:39:07.254Z,20.86
2022-10-12T11:42:09.662Z,20.86
2022-10-12T11:44:43.438Z,20.91
2022-10-12T11:47:47.668Z,20.93
2022-10-12T11:50:38.092Z,20.94
2022-10-12T11:53:33.804Z,20.96
2022-10-12T11:56:40.011Z,20.86
2022-10-12T11:59:43.256Z,20.96
2022-10-12T12:02:18.796Z,21.00
2022-10-12T12:04:49.736Z,21.01
2022-10-12T12:07:59.849Z,21.06
2022-10-12T12:10:37.429Z,21.05
2022-10-12T12:13:21.676Z,21.15
2022-10-12T12:15:52.181Z,21.17
2022-10-12T12:18:25.903Z,21.23
2022-10-12T12:21:05.364Z,21.28
2022-10-12T12:23:54.969Z,21.31
2022-10-12T12:26:28.935Z,21.28
2022-10-12T12:29:17.777Z,21.34
2022-10-12T12:32:02.369Z,21.37
2022-10-12T12:34:32.396Z,21.35
2022-10-12T12:37:12.759Z,21.42
2022-10-12T12:39:43.650Z,21.42
2022-10-12T12:42:20.697Z,21.45
2022-10-12T12:44:48.885Z,21.47
2022-10-12T12:47:51.476Z,21.53
2022-10-12T12:50:35.607Z,21.55
2022-10-12T12:53:18.624Z,21.55
2022-10-12T12:57:00.821Z,21.57
2022-10-12T13:00:07.056Z,21.61
2022-10-12T13:03:09.557Z,21.65
2022-10-12T13:06:23.561Z,21.63
2022-10-12T13:09:29.043Z,21.68
2022-10-12T13:12:06.195Z,21.69
2022-10-12T13:15:37.875Z,21.69
2022-10-12T13:18:47.566Z,21.71
2022-10-12T13:21:24.549Z,21.75
2022-10-12T13:24:26.541Z,21.78
2022-10-12T13:27:32.850Z,21.81
2022-10-12T13:30:11.874Z,21.85
2022-10-12T13:33:14.599Z,21.88
2022-10-12T13:36:35.364Z,21.87
2022-10-12T13:39:22.942Z,21.92
2022-10-12T13:41:56.376Z,21.89
2022-10-12T13:44:35.161Z,21.99
2022-10-12T13:47:31.306Z,22.01
2022-10-12T13:50:01.929Z,21.96
2022-10-12T13:52:34.827Z,22.05
2022-10-12T13:55:16.571Z,22.09
2022-10-12T13:57:48.632Z,22.05
2022-10-12T14:00:16.704Z,22.09
2022-10-12T14:02:56.854Z,22.17
2022-10-12T14:05:30.037Z,22.14
2022-10-12T14:08:07.696Z,22.21
2022-10-12T14:10:38.290Z,22.22
2022-10-12T14:13:07.182Z,22.23
2022-10-12T14:15:39.749Z,22.25
2022-10-12T14:18:36.078Z,22.30
2022-10-12T14:21:33.263Z,22.31
2022-10-12T14:24:10.437Z,22.25
2022-10-12T14:26:45.339Z,22.30
2022-10-12T14:29:49.100Z,22.34
2022-10-12T14:32:36.311Z,22.41
2022-10-12T14:35:18.351Z,22.47
2022-10-12T14:37:48.308Z,22.49
2022-10-12T14:40:32.709Z,22.55
2022-10-12T14:43:03.979Z,22.53
2022-10-12T14:45:33.332Z,22.54
2022-10-12T14:48:02.472Z,22.59
2022-10-12T14:50:32.711Z,22.62
2022-10-12T14:53:07.552Z,22.64
2022-10-12T14:55:35.639Z,22.60
2022-10-12T14:58:14.018Z,22.70
2022-10-12T15:00:43.512Z,22.66
2022-10-12T15:03:12.073Z,22.71
2022-10-12T15:05:40.103Z,22.72
2022-10-12T15:08:10.580Z,22.79
2022-10-12T15:10:38.532Z,22.80
2022-10-12T15:13:06.377Z,22.84
2022-10-12T15:15:45.829Z,22.83
2022-10-12T15:18:14.851Z,22.86
2022-10-12T15:20:48.408Z,22.88
2022-10-12T15:23:17.424Z,22.87
2022-10-12T15:25:54.893Z,22.92
2022-10-12T15:28:23.592Z,22.92
2022-10-12T15:31:15.887Z,22.86
2022-10-12T15:33:41.310Z,22.91
2022-10-12T15:36:10.799Z,22.88
2022-10-12T15:38:39.125Z,22.86
2022-10-12T15:41:17.625Z,22.83
2022-10-12T15:43:45.527Z,22.83
2022-10-12T15:46:13.671Z,22.81
2022-10-12T15:48:42.122Z,22.82
2022-10-12T15:51:19.174Z,22.77
2022-10-12T15:53:47.432Z,22.75
2022-10-12T15:56:17.971Z,22.61
2022-10-12T15:58:46.376Z,22.62
2022-10-12T16:01:21.147Z,22.64
2022-10-12T16:03:50.111Z,22.53
2022-10-12T16:06:18.820Z,22.48
2022-10-12T16:08:48.048Z,22.44
2022-10-12T16:11:18.479Z,22.42
2022-10-12T16:13:54.017Z,22.34
2022-10-12T16:16:24.568Z,22.26
2022-10-12T16:18:54.009Z,22.21
2022-10-12T16:21:22.173Z,22.10
2022-10-12T16:23:51.014Z,22.17
2022-10-12T16:26:20.314Z,22.04
2022-10-12T16:28:48.891Z,22.07
2022-10-12T16:31:18.708Z,22.05
2022-10-12T16:33:47.045Z,21.98
2022-10-12T16:36:17.973Z,21.92
2022-10-12T16:38:46.454Z,21.83
2022-10-12T16:41:18.842Z,21.70
2022-10-12T16:43:46.848Z,21.63
2022-10-12T16:46:15.953Z,21.58
2022-10-12T16:48:44.797Z,21.52
2022-10-12T16:51:14.071Z,21.50
2022-10-12T16:53:42.472Z,21.36
2022-10-12T16:56:11.057Z,21.35
2022-10-12T16:58:39.447Z,21.27
2022-10-12T17:01:14.062Z,21.20
2022-10-12T17:03:42.731Z,21.09
2022-10-12T17:06:12.915Z,21.00
2022-10-12T17:08:41.979Z,20.99
2022-10-12T17:11:13.828Z,20.94
2022-10-12T17:13:48.081Z,20.86
2022-10-12T17:16:37.316Z,20.77
2022-10-12T17:19:08.453Z,20.74
2022-10-12T17:21:45.576Z,20.60
2022-10-12T17:24:17.304Z,20.65
2022-10-12T17:26:46.364Z,20.58
2022-10-12T17:29:18.689Z,20.61
2022-10-12T17:31:48.940Z,20.58
2022-10-12T17:34:26.330Z,20.65
2022-10-12T17:36:58.782Z,20.59
2022-10-12T17:39:30.391Z,20.53
2022-10-12T17:42:00.402Z,20.44
2022-10-12T17:44:30.078Z,20.38
2022-10-12T17:47:00.797Z,20.27
2022-10-12T17:49:30.108Z,20.23
2022-10-12T17:52:00.213Z,20.22
2022-10-12T17:54:29.768Z,20.15
2022-10-12T17:56:59.206Z,20.17
2022-10-12T17:59:27.699Z,20.08
2022-10-12T18:01:55.791Z,20.09
2022-10-12T18:04:25.164Z,20.04
2022-10-12T18:06:57.583Z,19.98
2022-10-12T18:09:26.387Z,19.75
2022-10-12T18:11:56.228Z,19.75
2022-10-12T18:14:24.670Z,19.81
2022-10-12T18:16:54.837Z,19.84
2022-10-12T18:19:23.642Z,19.81
2022-10-12T18:21:51.482Z,19.78
2022-10-12T18:24:23.825Z,19.76
2022-10-12T18:26:53.485Z,19.76
2022-10-12T18:29:22.837Z,19.74
2022-10-12T18:31:51.213Z,19.71
2022-10-12T18:34:19.520Z,19.69
2022-10-12T18:36:49.562Z,19.64
2022-10-12T18:39:22.292Z,19.57
2022-10-12T18:41:54.091Z,19.49
2022-10-12T18:44:22.060Z,19.47
2022-10-12T18:46:51.612Z,19.47
2022-10-12T18:49:20.276Z,19.45
2022-10-12T18:51:51.969Z,19.46
2022-10-12T18:54:20.139Z,19.24
2022-10-12T18:56:49.089Z,19.32
2022-10-12T18:59:20.038Z,19.41
2022-10-12T19:01:49.919Z,19.37
2022-10-12T19:04:19.208Z,19.37
2022-10-12T19:06:49.008Z,19.34
2022-10-12T19:09:19.089Z,19.33
2022-10-12T19:11:48.151Z,19.32
2022-10-12T19:14:17.366Z,19.26
2022-10-12T19:16:46.469Z,19.27
2022-10-12T19:19:21.100Z,19.21
2022-10-12T19:21:54.072Z,19.18
2022-10-12T19:24:22.931Z,19.10
2022-10-12T19:26:56.507Z,19.08
2022-10-12T19:29:26.067Z,19.03
2022-10-12T19:31:54.693Z,18.96
2022-10-12T19:34:24.141Z,18.91
2022-10-12T19:36:53.066Z,18.91
2022-10-12T19:39:23.915Z,18.87
2022-10-12T19:41:53.043Z,18.88
2022-10-12T19:44:22.058Z,18.83
2022-10-12T19:46:53.839Z,18.79
2022-10-12T19:49:22.863Z,18.77
2022-10-12T19:51:51.025Z,18.73
2022-10-12T19:54:19.758Z,18.67
2022-10-12T19:56:48.156Z,18.68
2022-10-12T19:59:16.701Z,18.66
2022-10-12T20:01:48.239Z,18.59
2022-10-12T20:04:17.889Z,18.58
2022-10-12T20:06:46.281Z,18.54
2022-10-12T20:09:15.065Z,18.53
2022-10-12T20:11:45.510Z,18.53
2022-10-12T20:14:15.274Z,18.46
2022-10-12T20:16:48.543Z,18.39
2022-10-12T20:19:17.194Z,18.38
2022-10-12T20:21:45.531Z,18.39
2022-10-12T20:24:14.421Z,18.33
2022-10-12T20:26:44.028Z,18.20
2022-10-12T20:29:13.402Z,18.27
2022-10-12T20:31:44.540Z,18.17
2022-10-12T20:34:13.365Z,18.11
2022-10-12T20:36:41.535Z,18.05
2022-10-12T20:39:09.694Z,18.03
2022-10-12T20:41:41.489Z,17.97
2022-10-12T20:44:11.048Z,17.89
2022-10-12T20:46:39.100Z,17.87
2022-10-12T20:49:07.934Z,17.83
2022-10-12T20:51:41.736Z,17.83
2022-10-12T20:54:18.932Z,17.78
2022-10-12T20:56:49.581Z,17.72
2022-10-12T20:59:20.616Z,17.62
2022-10-12T21:01:48.883Z,17.62
2022-10-12T21:04:16.719Z,17.59
2022-10-12T21:06:44.643Z,17.60
2022-10-12T21:09:14.783Z,17.65
2022-10-12T21:11:43.736Z,17.60
2022-10-12T21:14:13.059Z,17.66
2022-10-12T21:16:41.242Z,17.64
2022-10-12T21:19:17.202Z,17.69
2022-10-12T21:21:46.569Z,17.68
2022-10-12T21:24:15.628Z,17.69
2022-10-12T21:26:44.465Z,17.71
2022-10-12T21:29:13.063Z,17.68
2022-10-12T21:31:41.360Z,17.65
2022-10-12T21:34:10.739Z,17.67
2022-10-12T21:36:39.487Z,17.60
2022-10-12T21:39:17.951Z,17.70
2022-10-12T21:41:46.254Z,17.68
2022-10-12T21:44:15.380Z,17.71
2022-10-12T21:46:44.344Z,17.63
2022-10-12T21:49:15.689Z,17.66
2022-10-12T21:51:44.848Z,17.66
2022-10-12T21:54:12.817Z,17.63
2022-10-12T21:56:42.618Z,17.56
2022-10-12T21:59:10.733Z,17.52
2022-10-12T22:04:23.365Z,17.44
2022-10-12T22:06:51.418Z,17.43
2022-10-12T22:09:22.252Z,17.44
2022-10-12T22:11:51.433Z,17.46
2022-10-12T22:14:21.949Z,17.49
2022-10-12T22:16:50.928Z,17.47
2022-10-12T22:19:20.915Z,17.51
2022-10-12T22:21:51.853Z,17.54
2022-10-12T22:24:21.334Z,17.31
2022-10-12T22:26:49.613Z,17.45
2022-10-12T22:29:17.477Z,17.49
2022-10-12T22:31:47.089Z,17.57
2022-10-12T22:34:16.456Z,17.56
2022-10-12T22:36:47.832Z,17.60
2022-10-12T22:39:21.518Z,17.54
2022-10-12T22:41:49.399Z,17.51
2022-10-12T22:44:17.970Z,17.52
2022-10-12T22:46:45.970Z,17.52
2022-10-12T22:49:14.011Z,17.52
2022-10-12T22:51:42.588Z,17.48
2022-10-12T22:54:13.164Z,17.48
2022-10-12T22:56:42.796Z,17.50
2022-10-12T22:59:14.496Z,17.54
2022-10-12T23:01:42.780Z,17.56
2022-10-12T23:04:11.196Z,17.55
2022-10-12T23:06:39.248Z,17.57
2022-10-12T23:09:07.199Z,17.55
2022-10-12T23:11:35.145Z,17.48
2022-10-12T23:14:03.067Z,17.40
2022-10-12T23:16:33.985Z,17.27
2022-10-12T23:19:05.901Z,17.30
2022-10-12T23:21:35.438Z,17.19
2022-10-12T23:24:07.239Z,17.19
2022-10-12T23:26:35.701Z,17.17
2022-10-12T23:29:05.016Z,17.13
2022-10-12T23:31:33.526Z,17.14
2022-10-12T23:34:05.422Z,17.13
2022-10-12T23:36:34.803Z,17.09
2022-10-12T23:39:05.552Z,17.11
2022-10-12T23:41:33.882Z,17.01
2022-10-12T23:44:02.501Z,17.11
2022-10-12T23:46:30.611Z,17.10
2022-10-12T23:48:58.807Z,17.05
2022-10-12T23:51:27.352Z,17.17
2022-10-12T23:53:55.289Z,17.18
2022-10-12T23:56:23.951Z,17.17
2022-10-12T23:58:52.435Z,17.24
